sensor_id;sensor_type;location;lat;lon;timestamp;temperature;humidity
40638;DHT22;26336;44.696;10.622;2022-11-24T00:01:14;7.20;99.90
40638;DHT22;26336;44.696;10.622;2022-11-24T00:04:37;7.20;99.90
40638;DHT22;26336;44.696;10.622;2022-11-24T00:07:41;7.30;99.90
40638;DHT22;26336;44.696;10.622;2022-11-24T00:10:45;7.30;99.90
40638;DHT22;26336;44.696;10.622;2022-11-24T00:13:50;7.30;99.90
40638;DHT22;26336;44.696;10.622;2022-11-24T00:16:54;7.30;99.90
40638;DHT22;26336;44.696;10.622;2022-11-24T00:19:58;7.30;99.90
40638;DHT22;26336;44.696;10.622;2022-11-24T00:23:02;7.30;99.90
40638;DHT22;26336;44.696;10.622;2022-11-24T00:26:08;7.30;99.90
40638;DHT22;26336;44.696;10.622;2022-11-24T00:29:12;7.30;99.90
40638;DHT22;26336;44.696;10.622;2022-11-24T00:32:16;7.30;99.90
40638;DHT22;26336;44.696;10.622;2022-11-24T00:35:20;7.30;99.90
40638;DHT22;26336;44.696;10.622;2022-11-24T00:38:25;7.40;99.90
40638;DHT22;26336;44.696;10.622;2022-11-24T00:41:30;7.40;99.90
40638;DHT22;26336;44.696;10.622;2022-11-24T00:44:34;7.30;99.90
40638;DHT22;26336;44.696;10.622;2022-11-24T00:47:38;7.30;99.90
40638;DHT22;26336;44.696;10.622;2022-11-24T00:50:42;7.30;99.90
40638;DHT22;26336;44.696;10.622;2022-11-24T00:53:46;7.30;99.90
40638;DHT22;26336;44.696;10.622;2022-11-24T00:56:50;7.20;99.90
40638;DHT22;26336;44.696;10.622;2022-11-24T00:59:54;7.30;99.90
40638;DHT22;26336;44.696;10.622;2022-11-24T01:02:58;7.30;99.90
40638;DHT22;26336;44.696;10.622;2022-11-24T01:06:08;7.10;99.90
40638;DHT22;26336;44.696;10.622;2022-11-24T01:09:18;7.20;99.90
40638;DHT22;26336;44.696;10.622;2022-11-24T01:12:47;7.20;99.90
40638;DHT22;26336;44.696;10.622;2022-11-24T01:15:50;7.10;99.90
40638;DHT22;26336;44.696;10.622;2022-11-24T01:18:55;7.10;99.90
40638;DHT22;26336;44.696;10.622;2022-11-24T01:21:59;7.10;99.90
40638;DHT22;26336;44.696;10.622;2022-11-24T01:25:05;7.10;99.90
40638;DHT22;26336;44.696;10.622;2022-11-24T01:28:09;7.00;99.90
40638;DHT22;26336;44.696;10.622;2022-11-24T01:31:14;7.00;99.90
40638;DHT22;26336;44.696;10.622;2022-11-24T01:34:18;7.00;99.90
40638;DHT22;26336;44.696;10.622;2022-11-24T01:37:22;7.00;99.90
40638;DHT22;26336;44.696;10.622;2022-11-24T01:40:26;6.90;99.90
40638;DHT22;26336;44.696;10.622;2022-11-24T01:43:30;7.00;99.90
40638;DHT22;26336;44.696;10.622;2022-11-24T01:46:41;6.90;99.90
40638;DHT22;26336;44.696;10.622;2022-11-24T01:49:50;6.80;99.90
40638;DHT22;26336;44.696;10.622;2022-11-24T01:52:55;6.80;99.90
40638;DHT22;26336;44.696;10.622;2022-11-24T01:55:59;6.80;99.90
40638;DHT22;26336;44.696;10.622;2022-11-24T01:59:05;6.80;99.90
40638;DHT22;26336;44.696;10.622;2022-11-24T02:02:13;6.80;99.90
40638;DHT22;26336;44.696;10.622;2022-11-24T02:05:22;6.80;99.90
40638;DHT22;26336;44.696;10.622;2022-11-24T02:08:33;6.80;99.90
40638;DHT22;26336;44.696;10.622;2022-11-24T02:11:41;6.90;99.90
40638;DHT22;26336;44.696;10.622;2022-11-24T02:14:46;6.80;99.90
40638;DHT22;26336;44.696;10.622;2022-11-24T02:17:50;6.80;99.90
40638;DHT22;26336;44.696;10.622;2022-11-24T02:20:54;6.80;99.90
40638;DHT22;26336;44.696;10.622;2022-11-24T02:24:06;6.70;99.90
40638;DHT22;26336;44.696;10.622;2022-11-24T02:27:12;6.70;99.90
40638;DHT22;26336;44.696;10.622;2022-11-24T02:30:17;6.70;99.90
40638;DHT22;26336;44.696;10.622;2022-11-24T02:33:21;6.70;99.90
40638;DHT22;26336;44.696;10.622;2022-11-24T02:36:28;6.70;99.90
40638;DHT22;26336;44.696;10.622;2022-11-24T02:39:32;6.70;99.90
40638;DHT22;26336;44.696;10.622;2022-11-24T02:42:40;6.70;99.90
40638;DHT22;26336;44.696;10.622;2022-11-24T02:45:50;6.60;99.90
40638;DHT22;26336;44.696;10.622;2022-11-24T02:48:54;6.50;99.90
40638;DHT22;26336;44.696;10.622;2022-11-24T02:51:58;6.40;99.90
40638;DHT22;26336;44.696;10.622;2022-11-24T02:55:02;6.30;99.90
40638;DHT22;26336;44.696;10.622;2022-11-24T02:58:06;6.30;99.90
40638;DHT22;26336;44.696;10.622;2022-11-24T03:01:10;6.40;99.90
40638;DHT22;26336;44.696;10.622;2022-11-24T03:04:14;6.40;99.90
40638;DHT22;26336;44.696;10.622;2022-11-24T03:07:18;6.40;99.90
40638;DHT22;26336;44.696;10.622;2022-11-24T03:10:22;6.50;99.90
40638;DHT22;26336;44.696;10.622;2022-11-24T03:13:27;6.40;99.90
40638;DHT22;26336;44.696;10.622;2022-11-24T03:16:32;6.40;99.90
40638;DHT22;26336;44.696;10.622;2022-11-24T03:19:38;6.40;99.90
40638;DHT22;26336;44.696;10.622;2022-11-24T03:22:42;6.40;99.90
40638;DHT22;26336;44.696;10.622;2022-11-24T03:25:45;6.40;99.90
40638;DHT22;26336;44.696;10.622;2022-11-24T03:28:53;6.30;99.90
40638;DHT22;26336;44.696;10.622;2022-11-24T03:31:57;6.30;99.90
40638;DHT22;26336;44.696;10.622;2022-11-24T03:35:01;6.30;99.90
40638;DHT22;26336;44.696;10.622;2022-11-24T03:38:05;6.30;99.90
40638;DHT22;26336;44.696;10.622;2022-11-24T03:41:09;6.40;99.90
40638;DHT22;26336;44.696;10.622;2022-11-24T03:44:13;6.30;99.90
40638;DHT22;26336;44.696;10.622;2022-11-24T03:47:17;5.90;99.90
40638;DHT22;26336;44.696;10.622;2022-11-24T03:50:21;5.90;99.90
40638;DHT22;26336;44.696;10.622;2022-11-24T03:53:26;6.00;99.90
40638;DHT22;26336;44.696;10.622;2022-11-24T03:56:31;6.10;99.90
40638;DHT22;26336;44.696;10.622;2022-11-24T03:59:35;6.10;99.90
40638;DHT22;26336;44.696;10.622;2022-11-24T04:02:38;6.00;99.90
40638;DHT22;26336;44.696;10.622;2022-11-24T04:05:42;6.00;99.90
40638;DHT22;26336;44.696;10.622;2022-11-24T04:08:46;5.90;99.90
40638;DHT22;26336;44.696;10.622;2022-11-24T04:11:50;5.90;99.90
40638;DHT22;26336;44.696;10.622;2022-11-24T04:15:15;5.90;99.90
40638;DHT22;26336;44.696;10.622;2022-11-24T04:18:19;5.90;99.90
40638;DHT22;26336;44.696;10.622;2022-11-24T04:21:24;5.90;99.90
40638;DHT22;26336;44.696;10.622;2022-11-24T04:24:27;6.00;99.90
40638;DHT22;26336;44.696;10.622;2022-11-24T04:27:32;5.90;99.90
40638;DHT22;26336;44.696;10.622;2022-11-24T04:30:37;5.70;99.90
40638;DHT22;26336;44.696;10.622;2022-11-24T04:33:43;5.50;99.90
40638;DHT22;26336;44.696;10.622;2022-11-24T04:36:47;5.60;99.90
40638;DHT22;26336;44.696;10.622;2022-11-24T04:39:51;5.70;99.90
40638;DHT22;26336;44.696;10.622;2022-11-24T04:42:57;5.80;99.90
40638;DHT22;26336;44.696;10.622;2022-11-24T04:46:02;5.90;99.90
40638;DHT22;26336;44.696;10.622;2022-11-24T04:49:06;6.00;99.90
40638;DHT22;26336;44.696;10.622;2022-11-24T04:52:18;6.00;99.90
40638;DHT22;26336;44.696;10.622;2022-11-24T04:55:23;6.10;99.90
40638;DHT22;26336;44.696;10.622;2022-11-24T04:58:26;6.00;99.90
40638;DHT22;26336;44.696;10.622;2022-11-24T05:01:31;6.10;99.90
40638;DHT22;26336;44.696;10.622;2022-11-24T05:04:35;6.10;99.90
40638;DHT22;26336;44.696;10.622;2022-11-24T05:07:39;6.10;99.90
40638;DHT22;26336;44.696;10.622;2022-11-24T05:10:43;6.10;99.90
40638;DHT22;26336;44.696;10.622;2022-11-24T05:13:47;6.10;99.90
40638;DHT22;26336;44.696;10.622;2022-11-24T05:16:51;6.00;99.90
40638;DHT22;26336;44.696;10.622;2022-11-24T05:19:55;6.00;99.90
40638;DHT22;26336;44.696;10.622;2022-11-24T05:23:07;6.00;99.90
40638;DHT22;26336;44.696;10.622;2022-11-24T05:26:10;6.00;99.90
40638;DHT22;26336;44.696;10.622;2022-11-24T05:29:14;5.80;99.90
40638;DHT22;26336;44.696;10.622;2022-11-24T05:32:19;5.80;99.90
40638;DHT22;26336;44.696;10.622;2022-11-24T05:35:23;5.80;99.90
40638;DHT22;26336;44.696;10.622;2022-11-24T05:38:28;5.90;99.90
40638;DHT22;26336;44.696;10.622;2022-11-24T05:41:32;5.90;99.90
40638;DHT22;26336;44.696;10.622;2022-11-24T05:44:36;5.90;99.90
40638;DHT22;26336;44.696;10.622;2022-11-24T05:47:41;6.00;99.90
40638;DHT22;26336;44.696;10.622;2022-11-24T05:50:52;6.00;99.90
40638;DHT22;26336;44.696;10.622;2022-11-24T05:53:56;5.80;99.90
40638;DHT22;26336;44.696;10.622;2022-11-24T05:57:03;5.80;99.90
40638;DHT22;26336;44.696;10.622;2022-11-24T06:00:09;5.90;99.90
40638;DHT22;26336;44.696;10.622;2022-11-24T06:03:17;5.80;99.90
40638;DHT22;26336;44.696;10.622;2022-11-24T06:06:21;5.90;99.90
40638;DHT22;26336;44.696;10.622;2022-11-24T06:09:25;5.90;99.90
40638;DHT22;26336;44.696;10.622;2022-11-24T06:12:29;6.00;99.90
40638;DHT22;26336;44.696;10.622;2022-11-24T06:15:34;6.00;99.90
40638;DHT22;26336;44.696;10.622;2022-11-24T06:18:40;6.00;99.90
40638;DHT22;26336;44.696;10.622;2022-11-24T06:21:44;6.00;99.90
40638;DHT22;26336;44.696;10.622;2022-11-24T06:24:48;6.00;99.90
40638;DHT22;26336;44.696;10.622;2022-11-24T06:27:53;5.90;99.90
40638;DHT22;26336;44.696;10.622;2022-11-24T06:31:01;5.80;99.90
40638;DHT22;26336;44.696;10.622;2022-11-24T06:34:07;5.70;99.90
40638;DHT22;26336;44.696;10.622;2022-11-24T06:37:13;5.70;99.90
40638;DHT22;26336;44.696;10.622;2022-11-24T06:40:17;5.60;99.90
40638;DHT22;26336;44.696;10.622;2022-11-24T06:43:21;5.70;99.90
40638;DHT22;26336;44.696;10.622;2022-11-24T06:46:26;5.70;99.90
40638;DHT22;26336;44.696;10.622;2022-11-24T06:49:30;5.80;99.90
40638;DHT22;26336;44.696;10.622;2022-11-24T06:52:33;5.80;99.90
40638;DHT22;26336;44.696;10.622;2022-11-24T06:55:39;5.80;99.90
40638;DHT22;26336;44.696;10.622;2022-11-24T06:58:49;5.90;99.90
40638;DHT22;26336;44.696;10.622;2022-11-24T07:01:52;5.90;99.90
40638;DHT22;26336;44.696;10.622;2022-11-24T07:04:56;5.90;99.90
40638;DHT22;26336;44.696;10.622;2022-11-24T07:08:00;6.00;99.90
40638;DHT22;26336;44.696;10.622;2022-11-24T07:11:05;5.90;99.90
40638;DHT22;26336;44.696;10.622;2022-11-24T07:14:09;5.90;99.90
40638;DHT22;26336;44.696;10.622;2022-11-24T07:17:12;5.90;99.90
40638;DHT22;26336;44.696;10.622;2022-11-24T07:20:17;5.90;99.90
40638;DHT22;26336;44.696;10.622;2022-11-24T07:23:21;5.90;99.90
40638;DHT22;26336;44.696;10.622;2022-11-24T07:26:25;5.90;99.90
40638;DHT22;26336;44.696;10.622;2022-11-24T07:29:29;6.00;99.90
40638;DHT22;26336;44.696;10.622;2022-11-24T07:32:33;6.00;99.90
40638;DHT22;26336;44.696;10.622;2022-11-24T07:35:37;6.00;99.90
40638;DHT22;26336;44.696;10.622;2022-11-24T07:38:41;6.10;99.90
40638;DHT22;26336;44.696;10.622;2022-11-24T07:41:45;6.10;99.90
40638;DHT22;26336;44.696;10.622;2022-11-24T07:44:49;6.20;99.90
40638;DHT22;26336;44.696;10.622;2022-11-24T07:47:56;6.20;99.90
40638;DHT22;26336;44.696;10.622;2022-11-24T07:51:03;6.20;99.90
40638;DHT22;26336;44.696;10.622;2022-11-24T07:54:16;6.30;99.90
40638;DHT22;26336;44.696;10.622;2022-11-24T07:57:20;6.30;99.90
40638;DHT22;26336;44.696;10.622;2022-11-24T08:00:27;6.40;99.90
40638;DHT22;26336;44.696;10.622;2022-11-24T08:03:34;6.50;99.90
40638;DHT22;26336;44.696;10.622;2022-11-24T08:06:38;6.50;99.90
40638;DHT22;26336;44.696;10.622;2022-11-24T08:09:42;6.50;99.90
40638;DHT22;26336;44.696;10.622;2022-11-24T08:12:46;6.60;99.90
40638;DHT22;26336;44.696;10.622;2022-11-24T08:15:50;6.60;99.90
40638;DHT22;26336;44.696;10.622;2022-11-24T08:18:54;6.80;99.90
40638;DHT22;26336;44.696;10.622;2022-11-24T08:21:59;6.80;99.90
40638;DHT22;26336;44.696;10.622;2022-11-24T08:25:03;6.90;99.90
40638;DHT22;26336;44.696;10.622;2022-11-24T08:28:09;6.90;99.90
40638;DHT22;26336;44.696;10.622;2022-11-24T08:31:17;6.80;99.90
40638;DHT22;26336;44.696;10.622;2022-11-24T08:34:22;6.90;99.90
40638;DHT22;26336;44.696;10.622;2022-11-24T08:37:27;7.00;99.90
40638;DHT22;26336;44.696;10.622;2022-11-24T08:40:32;7.00;99.90
40638;DHT22;26336;44.696;10.622;2022-11-24T08:43:36;7.10;99.90
40638;DHT22;26336;44.696;10.622;2022-11-24T08:46:40;7.20;99.90
40638;DHT22;26336;44.696;10.622;2022-11-24T08:49:44;7.20;99.90
40638;DHT22;26336;44.696;10.622;2022-11-24T08:52:51;7.30;99.90
40638;DHT22;26336;44.696;10.622;2022-11-24T08:55:58;7.50;99.90
40638;DHT22;26336;44.696;10.622;2022-11-24T08:59:03;7.60;99.90
40638;DHT22;26336;44.696;10.622;2022-11-24T09:02:12;7.70;99.90
40638;DHT22;26336;44.696;10.622;2022-11-24T09:05:17;7.80;99.90
40638;DHT22;26336;44.696;10.622;2022-11-24T09:08:20;7.90;99.90
40638;DHT22;26336;44.696;10.622;2022-11-24T09:11:25;8.00;99.90
40638;DHT22;26336;44.696;10.622;2022-11-24T09:14:29;8.10;99.90
40638;DHT22;26336;44.696;10.622;2022-11-24T09:17:33;8.30;99.90
40638;DHT22;26336;44.696;10.622;2022-11-24T09:20:40;8.40;99.90
40638;DHT22;26336;44.696;10.622;2022-11-24T09:23:46;8.60;99.90
40638;DHT22;26336;44.696;10.622;2022-11-24T09:26:52;8.70;99.90
40638;DHT22;26336;44.696;10.622;2022-11-24T09:29:56;8.80;99.90
40638;DHT22;26336;44.696;10.622;2022-11-24T09:33:00;8.90;99.90
40638;DHT22;26336;44.696;10.622;2022-11-24T09:36:04;9.00;99.90
40638;DHT22;26336;44.696;10.622;2022-11-24T09:39:11;9.20;99.90
40638;DHT22;26336;44.696;10.622;2022-11-24T09:42:34;9.30;99.90
40638;DHT22;26336;44.696;10.622;2022-11-24T09:45:56;9.40;99.90
40638;DHT22;26336;44.696;10.622;2022-11-24T09:49:12;9.40;99.90
40638;DHT22;26336;44.696;10.622;2022-11-24T09:52:22;9.60;99.90
40638;DHT22;26336;44.696;10.622;2022-11-24T09:55:53;9.60;99.90
40638;DHT22;26336;44.696;10.622;2022-11-24T09:59:05;9.80;99.90
40638;DHT22;26336;44.696;10.622;2022-11-24T10:02:11;9.90;99.90
40638;DHT22;26336;44.696;10.622;2022-11-24T10:05:15;10.00;99.90
40638;DHT22;26336;44.696;10.622;2022-11-24T10:12:17;10.10;99.90
40638;DHT22;26336;44.696;10.622;2022-11-24T10:15:29;10.10;99.90
40638;DHT22;26336;44.696;10.622;2022-11-24T10:22:45;10.20;99.90
40638;DHT22;26336;44.696;10.622;2022-11-24T10:25:59;10.20;99.90
40638;DHT22;26336;44.696;10.622;2022-11-24T10:29:35;10.30;99.90
40638;DHT22;26336;44.696;10.622;2022-11-24T10:32:52;10.20;99.90
40638;DHT22;26336;44.696;10.622;2022-11-24T10:36:07;10.30;99.90
40638;DHT22;26336;44.696;10.622;2022-11-24T10:39:32;10.30;99.90
40638;DHT22;26336;44.696;10.622;2022-11-24T10:42:38;10.30;99.90
40638;DHT22;26336;44.696;10.622;2022-11-24T10:45:42;10.40;99.90
40638;DHT22;26336;44.696;10.622;2022-11-24T10:48:52;10.40;99.90
40638;DHT22;26336;44.696;10.622;2022-11-24T10:52:09;10.40;99.90
40638;DHT22;26336;44.696;10.622;2022-11-24T10:55:15;10.40;99.90
40638;DHT22;26336;44.696;10.622;2022-11-24T10:58:22;10.50;99.90
40638;DHT22;26336;44.696;10.622;2022-11-24T11:01:31;10.50;99.90
40638;DHT22;26336;44.696;10.622;2022-11-24T11:04:36;10.50;99.90
40638;DHT22;26336;44.696;10.622;2022-11-24T11:07:43;10.50;99.90
40638;DHT22;26336;44.696;10.622;2022-11-24T11:10:49;10.50;99.90
40638;DHT22;26336;44.696;10.622;2022-11-24T11:13:59;10.50;99.90
40638;DHT22;26336;44.696;10.622;2022-11-24T11:20:34;10.60;99.90
40638;DHT22;26336;44.696;10.622;2022-11-24T11:23:39;10.70;99.90
40638;DHT22;26336;44.696;10.622;2022-11-24T11:26:43;10.70;99.90
40638;DHT22;26336;44.696;10.622;2022-11-24T11:29:48;10.60;99.90
40638;DHT22;26336;44.696;10.622;2022-11-24T11:32:59;10.60;99.90
40638;DHT22;26336;44.696;10.622;2022-11-24T11:36:08;10.70;99.90
40638;DHT22;26336;44.696;10.622;2022-11-24T11:39:36;10.70;99.90
40638;DHT22;26336;44.696;10.622;2022-11-24T11:42:46;10.70;99.90
40638;DHT22;26336;44.696;10.622;2022-11-24T11:49:12;10.70;99.90
40638;DHT22;26336;44.696;10.622;2022-11-24T11:52:36;10.80;99.90
40638;DHT22;26336;44.696;10.622;2022-11-24T11:55:55;10.80;99.90
40638;DHT22;26336;44.696;10.622;2022-11-24T12:13:02;11.00;99.90
40638;DHT22;26336;44.696;10.622;2022-11-24T12:26:58;11.20;99.90
40638;DHT22;26336;44.696;10.622;2022-11-24T12:30:33;11.20;99.90
40638;DHT22;26336;44.696;10.622;2022-11-24T12:44:00;11.30;99.90
40638;DHT22;26336;44.696;10.622;2022-11-24T12:47:19;11.20;99.90
40638;DHT22;26336;44.696;10.622;2022-11-24T12:50:27;11.30;99.90
40638;DHT22;26336;44.696;10.622;2022-11-24T12:53:32;11.40;99.90
40638;DHT22;26336;44.696;10.622;2022-11-24T13:00:06;11.40;99.90
40638;DHT22;26336;44.696;10.622;2022-11-24T13:04:21;11.40;99.90
40638;DHT22;26336;44.696;10.622;2022-11-24T13:07:14;11.50;99.90
40638;DHT22;26336;44.696;10.622;2022-11-24T13:13:54;11.50;99.90
40638;DHT22;26336;44.696;10.622;2022-11-24T13:17:00;11.50;99.90
40638;DHT22;26336;44.696;10.622;2022-11-24T13:23:25;11.50;99.90
40638;DHT22;26336;44.696;10.622;2022-11-24T13:29:48;11.60;99.90
40638;DHT22;26336;44.696;10.622;2022-11-24T13:39:46;11.70;99.90
40638;DHT22;26336;44.696;10.622;2022-11-24T13:46:11;11.70;99.90
40638;DHT22;26336;44.696;10.622;2022-11-24T13:49:22;11.70;99.90
40638;DHT22;26336;44.696;10.622;2022-11-24T13:52:43;11.70;99.90
40638;DHT22;26336;44.696;10.622;2022-11-24T13:59:30;11.80;99.90
40638;DHT22;26336;44.696;10.622;2022-11-24T14:02:42;11.80;99.90
40638;DHT22;26336;44.696;10.622;2022-11-24T14:05:50;11.80;99.90
40638;DHT22;26336;44.696;10.622;2022-11-24T14:08:59;11.80;99.90
40638;DHT22;26336;44.696;10.622;2022-11-24T14:12:12;11.80;99.90
40638;DHT22;26336;44.696;10.622;2022-11-24T14:15:28;11.80;99.90
40638;DHT22;26336;44.696;10.622;2022-11-24T14:18:38;11.80;99.90
40638;DHT22;26336;44.696;10.622;2022-11-24T14:21:43;11.70;99.90
40638;DHT22;26336;44.696;10.622;2022-11-24T14:25:21;11.70;99.90
40638;DHT22;26336;44.696;10.622;2022-11-24T14:28:28;11.60;99.90
40638;DHT22;26336;44.696;10.622;2022-11-24T14:31:32;11.50;99.90
40638;DHT22;26336;44.696;10.622;2022-11-24T14:34:36;11.50;99.90
40638;DHT22;26336;44.696;10.622;2022-11-24T14:37:40;11.50;99.90
40638;DHT22;26336;44.696;10.622;2022-11-24T14:40:45;11.50;99.90
40638;DHT22;26336;44.696;10.622;2022-11-24T14:44:20;11.50;99.90
40638;DHT22;26336;44.696;10.622;2022-11-24T14:50:33;11.50;99.90
40638;DHT22;26336;44.696;10.622;2022-11-24T14:53:40;11.40;99.90
40638;DHT22;26336;44.696;10.622;2022-11-24T14:57:30;11.40;99.90
40638;DHT22;26336;44.696;10.622;2022-11-24T15:00:34;11.20;99.90
40638;DHT22;26336;44.696;10.622;2022-11-24T15:03:38;11.10;99.90
40638;DHT22;26336;44.696;10.622;2022-11-24T15:06:44;11.00;99.90
40638;DHT22;26336;44.696;10.622;2022-11-24T15:10:00;10.90;99.90
40638;DHT22;26336;44.696;10.622;2022-11-24T15:13:18;10.80;99.90
40638;DHT22;26336;44.696;10.622;2022-11-24T15:16:25;10.80;99.90
40638;DHT22;26336;44.696;10.622;2022-11-24T15:19:34;10.90;99.90
40638;DHT22;26336;44.696;10.622;2022-11-24T15:22:40;10.80;99.90
40638;DHT22;26336;44.696;10.622;2022-11-24T15:25:46;10.70;99.90
40638;DHT22;26336;44.696;10.622;2022-11-24T15:28:51;10.70;99.90
40638;DHT22;26336;44.696;10.622;2022-11-24T15:31:54;10.70;99.90
40638;DHT22;26336;44.696;10.622;2022-11-24T15:35:01;10.70;99.90
40638;DHT22;26336;44.696;10.622;2022-11-24T15:38:05;10.80;99.90
40638;DHT22;26336;44.696;10.622;2022-11-24T15:41:19;10.80;99.90
40638;DHT22;26336;44.696;10.622;2022-11-24T15:44:23;10.70;99.90
40638;DHT22;26336;44.696;10.622;2022-11-24T15:47:28;10.70;99.90
40638;DHT22;26336;44.696;10.622;2022-11-24T15:50:32;10.60;99.90
40638;DHT22;26336;44.696;10.622;2022-11-24T15:53:55;10.60;99.90
40638;DHT22;26336;44.696;10.622;2022-11-24T15:57:00;10.60;99.90
40638;DHT22;26336;44.696;10.622;2022-11-24T16:00:05;10.50;99.90
40638;DHT22;26336;44.696;10.622;2022-11-24T16:03:15;10.60;99.90
40638;DHT22;26336;44.696;10.622;2022-11-24T16:06:20;10.50;99.90
40638;DHT22;26336;44.696;10.622;2022-11-24T16:09:24;10.50;99.90
40638;DHT22;26336;44.696;10.622;2022-11-24T16:12:28;10.40;99.90
40638;DHT22;26336;44.696;10.622;2022-11-24T16:15:32;10.30;99.90
40638;DHT22;26336;44.696;10.622;2022-11-24T16:18:36;10.30;99.90
40638;DHT22;26336;44.696;10.622;2022-11-24T16:21:42;10.40;99.90
40638;DHT22;26336;44.696;10.622;2022-11-24T16:24:50;10.30;99.90
40638;DHT22;26336;44.696;10.622;2022-11-24T16:27:54;10.30;99.90
40638;DHT22;26336;44.696;10.622;2022-11-24T16:31:01;10.20;99.90
40638;DHT22;26336;44.696;10.622;2022-11-24T16:34:05;10.10;99.90
40638;DHT22;26336;44.696;10.622;2022-11-24T16:37:30;10.10;99.90
40638;DHT22;26336;44.696;10.622;2022-11-24T16:40:34;10.00;99.90
40638;DHT22;26336;44.696;10.622;2022-11-24T16:43:38;9.90;99.90
40638;DHT22;26336;44.696;10.622;2022-11-24T16:46:43;9.90;99.90
40638;DHT22;26336;44.696;10.622;2022-11-24T16:49:48;10.00;99.90
40638;DHT22;26336;44.696;10.622;2022-11-24T16:52:52;9.90;99.90
40638;DHT22;26336;44.696;10.622;2022-11-24T16:55:56;9.90;99.90
40638;DHT22;26336;44.696;10.622;2022-11-24T16:59:00;9.90;99.90
40638;DHT22;26336;44.696;10.622;2022-11-24T17:02:04;9.90;99.90
40638;DHT22;26336;44.696;10.622;2022-11-24T17:05:09;9.90;99.90
40638;DHT22;26336;44.696;10.622;2022-11-24T17:08:13;9.80;99.90
40638;DHT22;26336;44.696;10.622;2022-11-24T17:11:21;9.80;99.90
40638;DHT22;26336;44.696;10.622;2022-11-24T17:14:25;9.80;99.90
40638;DHT22;26336;44.696;10.622;2022-11-24T17:17:29;9.70;99.90
40638;DHT22;26336;44.696;10.622;2022-11-24T17:20:33;9.70;99.90
40638;DHT22;26336;44.696;10.622;2022-11-24T17:23:39;9.70;99.90
40638;DHT22;26336;44.696;10.622;2022-11-24T17:26:43;9.60;99.90
40638;DHT22;26336;44.696;10.622;2022-11-24T17:29:47;9.60;99.90
40638;DHT22;26336;44.696;10.622;2022-11-24T17:32:51;9.60;99.90
40638;DHT22;26336;44.696;10.622;2022-11-24T17:36:01;9.50;99.90
40638;DHT22;26336;44.696;10.622;2022-11-24T17:39:06;9.50;99.90
40638;DHT22;26336;44.696;10.622;2022-11-24T17:42:12;9.50;99.90
40638;DHT22;26336;44.696;10.622;2022-11-24T17:45:16;9.50;99.90
40638;DHT22;26336;44.696;10.622;2022-11-24T17:48:21;9.40;99.90
40638;DHT22;26336;44.696;10.622;2022-11-24T17:51:26;9.40;99.90
40638;DHT22;26336;44.696;10.622;2022-11-24T17:54:31;9.40;99.90
40638;DHT22;26336;44.696;10.622;2022-11-24T17:57:34;9.30;99.90
40638;DHT22;26336;44.696;10.622;2022-11-24T18:00:39;9.30;99.90
40638;DHT22;26336;44.696;10.622;2022-11-24T18:03:42;9.20;99.90
40638;DHT22;26336;44.696;10.622;2022-11-24T18:06:46;9.10;99.90
40638;DHT22;26336;44.696;10.622;2022-11-24T18:09:50;9.10;99.90
40638;DHT22;26336;44.696;10.622;2022-11-24T18:12:54;9.00;99.90
40638;DHT22;26336;44.696;10.622;2022-11-24T18:16:03;9.00;99.90
40638;DHT22;26336;44.696;10.622;2022-11-24T18:19:07;9.00;99.90
40638;DHT22;26336;44.696;10.622;2022-11-24T18:22:13;9.00;99.90
40638;DHT22;26336;44.696;10.622;2022-11-24T18:25:17;9.00;99.90
40638;DHT22;26336;44.696;10.622;2022-11-24T18:28:20;8.90;99.90
40638;DHT22;26336;44.696;10.622;2022-11-24T18:31:24;8.90;99.90
40638;DHT22;26336;44.696;10.622;2022-11-24T18:34:29;8.90;99.90
40638;DHT22;26336;44.696;10.622;2022-11-24T18:37:32;8.80;99.90
40638;DHT22;26336;44.696;10.622;2022-11-24T18:40:39;8.80;99.90
40638;DHT22;26336;44.696;10.622;2022-11-24T18:43:44;8.80;99.90
40638;DHT22;26336;44.696;10.622;2022-11-24T18:46:48;8.80;99.90
40638;DHT22;26336;44.696;10.622;2022-11-24T18:49:52;8.80;99.90
40638;DHT22;26336;44.696;10.622;2022-11-24T18:52:56;8.60;99.90
40638;DHT22;26336;44.696;10.622;2022-11-24T18:56:04;8.60;99.90
40638;DHT22;26336;44.696;10.622;2022-11-24T18:59:10;8.60;99.90
40638;DHT22;26336;44.696;10.622;2022-11-24T19:02:14;8.50;99.90
40638;DHT22;26336;44.696;10.622;2022-11-24T19:05:18;8.50;99.90
40638;DHT22;26336;44.696;10.622;2022-11-24T19:08:22;8.50;99.90
40638;DHT22;26336;44.696;10.622;2022-11-24T19:11:49;8.10;99.90
40638;DHT22;26336;44.696;10.622;2022-11-24T19:14:53;8.00;99.90
40638;DHT22;26336;44.696;10.622;2022-11-24T19:17:57;8.00;99.90
40638;DHT22;26336;44.696;10.622;2022-11-24T19:21:01;8.10;99.90
40638;DHT22;26336;44.696;10.622;2022-11-24T19:24:06;8.20;99.90
40638;DHT22;26336;44.696;10.622;2022-11-24T19:27:12;8.30;99.90
40638;DHT22;26336;44.696;10.622;2022-11-24T19:30:17;8.30;99.90
40638;DHT22;26336;44.696;10.622;2022-11-24T19:33:22;8.30;99.90
40638;DHT22;26336;44.696;10.622;2022-11-24T19:36:26;8.30;99.90
40638;DHT22;26336;44.696;10.622;2022-11-24T19:39:30;8.30;99.90
40638;DHT22;26336;44.696;10.622;2022-11-24T19:42:34;8.30;99.90
40638;DHT22;26336;44.696;10.622;2022-11-24T19:45:41;8.10;99.90
40638;DHT22;26336;44.696;10.622;2022-11-24T19:48:49;8.00;99.90
40638;DHT22;26336;44.696;10.622;2022-11-24T19:52:00;7.90;99.90
40638;DHT22;26336;44.696;10.622;2022-11-24T19:55:04;7.90;99.90
40638;DHT22;26336;44.696;10.622;2022-11-24T19:58:08;8.00;99.90
40638;DHT22;26336;44.696;10.622;2022-11-24T20:04:24;8.00;99.90
40638;DHT22;26336;44.696;10.622;2022-11-24T20:07:28;8.00;99.90
40638;DHT22;26336;44.696;10.622;2022-11-24T20:10:32;8.00;99.90
40638;DHT22;26336;44.696;10.622;2022-11-24T20:13:40;8.00;99.90
40638;DHT22;26336;44.696;10.622;2022-11-24T20:16:44;8.00;99.90
40638;DHT22;26336;44.696;10.622;2022-11-24T20:19:49;8.00;99.90
40638;DHT22;26336;44.696;10.622;2022-11-24T20:22:53;8.00;99.90
40638;DHT22;26336;44.696;10.622;2022-11-24T20:26:06;7.90;99.90
40638;DHT22;26336;44.696;10.622;2022-11-24T20:29:11;7.90;99.90
40638;DHT22;26336;44.696;10.622;2022-11-24T20:32:16;7.90;99.90
40638;DHT22;26336;44.696;10.622;2022-11-24T20:35:22;7.80;99.90
40638;DHT22;26336;44.696;10.622;2022-11-24T20:38:28;7.50;99.90
40638;DHT22;26336;44.696;10.622;2022-11-24T20:41:34;7.50;99.90
40638;DHT22;26336;44.696;10.622;2022-11-24T20:44:39;7.60;99.90
40638;DHT22;26336;44.696;10.622;2022-11-24T20:47:42;7.60;99.90
40638;DHT22;26336;44.696;10.622;2022-11-24T20:50:46;7.70;99.90
40638;DHT22;26336;44.696;10.622;2022-11-24T20:53:54;7.70;99.90
40638;DHT22;26336;44.696;10.622;2022-11-24T20:56:58;7.70;99.90
40638;DHT22;26336;44.696;10.622;2022-11-24T21:00:05;7.80;99.90